sensor_id;sensor_type;location;lat;lon;timestamp;temperature;humidity
58993;DHT22;44782;0.000;0.000;2024-01-30T00:01:53;19.20;52.00
58993;DHT22;44782;0.000;0.000;2024-01-30T00:04:11;19.20;52.80
58993;DHT22;44782;0.000;0.000;2024-01-30T00:06:27;19.20;52.10
58993;DHT22;44782;0.000;0.000;2024-01-30T00:08:43;19.10;52.10
58993;DHT22;44782;0.000;0.000;2024-01-30T00:11:01;19.10;52.00
58993;DHT22;44782;0.000;0.000;2024-01-30T00:13:17;19.10;52.10
58993;DHT22;44782;0.000;0.000;2024-01-30T00:15:35;19.10;52.10
58993;DHT22;44782;0.000;0.000;2024-01-30T00:17:50;19.20;52.20
58993;DHT22;44782;0.000;0.000;2024-01-30T00:20:08;19.10;52.10
58993;DHT22;44782;0.000;0.000;2024-01-30T00:22:24;19.10;52.20
58993;DHT22;44782;0.000;0.000;2024-01-30T00:24:40;19.10;52.20
58993;DHT22;44782;0.000;0.000;2024-01-30T00:26:56;19.10;52.20
58993;DHT22;44782;0.000;0.000;2024-01-30T00:29:11;19.00;52.20
58993;DHT22;44782;0.000;0.000;2024-01-30T00:31:27;19.10;52.30
58993;DHT22;44782;0.000;0.000;2024-01-30T00:33:43;19.00;52.10
58993;DHT22;44782;0.000;0.000;2024-01-30T00:35:59;19.00;52.30
58993;DHT22;44782;0.000;0.000;2024-01-30T00:38:14;19.00;52.30
58993;DHT22;44782;0.000;0.000;2024-01-30T00:40:30;19.00;52.20
58993;DHT22;44782;0.000;0.000;2024-01-30T00:42:46;19.00;52.30
58993;DHT22;44782;0.000;0.000;2024-01-30T00:45:01;18.90;52.40
58993;DHT22;44782;0.000;0.000;2024-01-30T00:47:17;18.90;52.40
58993;DHT22;44782;0.000;0.000;2024-01-30T00:49:33;18.90;52.20
58993;DHT22;44782;0.000;0.000;2024-01-30T00:51:48;18.90;52.10
58993;DHT22;44782;0.000;0.000;2024-01-30T00:54:04;18.90;52.10
58993;DHT22;44782;0.000;0.000;2024-01-30T00:56:21;18.90;52.00
58993;DHT22;44782;0.000;0.000;2024-01-30T00:58:37;18.90;51.90
58993;DHT22;44782;0.000;0.000;2024-01-30T01:00:53;18.80;51.80
58993;DHT22;44782;0.000;0.000;2024-01-30T01:03:08;18.80;51.80
58993;DHT22;44782;0.000;0.000;2024-01-30T01:05:24;18.80;51.70
58993;DHT22;44782;0.000;0.000;2024-01-30T01:07:40;18.80;51.60
58993;DHT22;44782;0.000;0.000;2024-01-30T01:09:58;18.80;51.70
58993;DHT22;44782;0.000;0.000;2024-01-30T01:12:13;18.80;51.70
58993;DHT22;44782;0.000;0.000;2024-01-30T01:14:29;18.70;51.60
58993;DHT22;44782;0.000;0.000;2024-01-30T01:16:45;18.70;51.70
58993;DHT22;44782;0.000;0.000;2024-01-30T01:19:00;18.70;51.70
58993;DHT22;44782;0.000;0.000;2024-01-30T01:21:16;18.70;51.60
58993;DHT22;44782;0.000;0.000;2024-01-30T01:23:32;18.70;51.60
58993;DHT22;44782;0.000;0.000;2024-01-30T01:25:47;18.60;51.60
58993;DHT22;44782;0.000;0.000;2024-01-30T01:28:03;18.60;51.60
58993;DHT22;44782;0.000;0.000;2024-01-30T01:30:19;18.60;51.60
58993;DHT22;44782;0.000;0.000;2024-01-30T01:32:37;18.60;51.50
58993;DHT22;44782;0.000;0.000;2024-01-30T01:34:53;18.60;51.50
58993;DHT22;44782;0.000;0.000;2024-01-30T01:37:09;18.60;51.60
58993;DHT22;44782;0.000;0.000;2024-01-30T01:39:25;18.50;51.60
58993;DHT22;44782;0.000;0.000;2024-01-30T01:41:40;18.50;51.60
58993;DHT22;44782;0.000;0.000;2024-01-30T01:43:56;18.50;51.40
58993;DHT22;44782;0.000;0.000;2024-01-30T01:46:11;18.50;51.40
58993;DHT22;44782;0.000;0.000;2024-01-30T01:48:27;18.50;51.50
58993;DHT22;44782;0.000;0.000;2024-01-30T01:50:43;18.40;51.30
58993;DHT22;44782;0.000;0.000;2024-01-30T01:52:59;18.40;51.30
58993;DHT22;44782;0.000;0.000;2024-01-30T01:55:16;18.40;51.20
58993;DHT22;44782;0.000;0.000;2024-01-30T01:57:34;18.40;51.50
58993;DHT22;44782;0.000;0.000;2024-01-30T01:59:49;18.40;51.30
58993;DHT22;44782;0.000;0.000;2024-01-30T02:02:07;18.40;51.40
58993;DHT22;44782;0.000;0.000;2024-01-30T02:04:26;18.40;51.40
58993;DHT22;44782;0.000;0.000;2024-01-30T02:06:43;18.40;51.30
58993;DHT22;44782;0.000;0.000;2024-01-30T02:08:59;18.30;51.30
58993;DHT22;44782;0.000;0.000;2024-01-30T02:11:15;18.30;51.30
58993;DHT22;44782;0.000;0.000;2024-01-30T02:13:32;18.30;51.40
58993;DHT22;44782;0.000;0.000;2024-01-30T02:15:51;18.30;51.40
58993;DHT22;44782;0.000;0.000;2024-01-30T02:18:07;18.30;51.10
58993;DHT22;44782;0.000;0.000;2024-01-30T02:20:24;18.30;51.30
58993;DHT22;44782;0.000;0.000;2024-01-30T02:22:40;18.30;51.20
58993;DHT22;44782;0.000;0.000;2024-01-30T02:24:56;18.20;51.20
58993;DHT22;44782;0.000;0.000;2024-01-30T02:27:12;18.20;51.20
58993;DHT22;44782;0.000;0.000;2024-01-30T02:29:27;18.20;51.30
58993;DHT22;44782;0.000;0.000;2024-01-30T02:31:43;18.20;51.30
58993;DHT22;44782;0.000;0.000;2024-01-30T02:34:01;18.20;51.30
58993;DHT22;44782;0.000;0.000;2024-01-30T02:36:16;18.20;51.40
58993;DHT22;44782;0.000;0.000;2024-01-30T02:38:32;18.10;51.10
58993;DHT22;44782;0.000;0.000;2024-01-30T02:40:48;18.20;51.30
58993;DHT22;44782;0.000;0.000;2024-01-30T02:43:04;18.10;51.20
58993;DHT22;44782;0.000;0.000;2024-01-30T02:45:19;18.10;51.40
58993;DHT22;44782;0.000;0.000;2024-01-30T02:47:35;18.10;51.20
58993;DHT22;44782;0.000;0.000;2024-01-30T02:49:51;18.10;51.20
58993;DHT22;44782;0.000;0.000;2024-01-30T02:52:06;18.10;51.30
58993;DHT22;44782;0.000;0.000;2024-01-30T02:54:22;18.10;51.30
58993;DHT22;44782;0.000;0.000;2024-01-30T02:56:37;18.00;51.90
58993;DHT22;44782;0.000;0.000;2024-01-30T02:58:53;18.00;51.30
58993;DHT22;44782;0.000;0.000;2024-01-30T03:01:09;18.00;51.30
58993;DHT22;44782;0.000;0.000;2024-01-30T03:03:24;18.00;51.30
58993;DHT22;44782;0.000;0.000;2024-01-30T03:05:40;18.00;51.50
58993;DHT22;44782;0.000;0.000;2024-01-30T03:07:55;18.00;51.50
58993;DHT22;44782;0.000;0.000;2024-01-30T03:10:11;18.00;51.40
58993;DHT22;44782;0.000;0.000;2024-01-30T03:12:27;18.00;51.50
58993;DHT22;44782;0.000;0.000;2024-01-30T03:14:42;18.00;51.50
58993;DHT22;44782;0.000;0.000;2024-01-30T03:16:58;17.90;51.40
58993;DHT22;44782;0.000;0.000;2024-01-30T03:19:13;17.90;51.40
58993;DHT22;44782;0.000;0.000;2024-01-30T03:21:29;17.90;51.80
58993;DHT22;44782;0.000;0.000;2024-01-30T03:23:45;17.90;51.40
58993;DHT22;44782;0.000;0.000;2024-01-30T03:26:01;17.90;51.40
58993;DHT22;44782;0.000;0.000;2024-01-30T03:28:16;17.90;51.40
58993;DHT22;44782;0.000;0.000;2024-01-30T03:30:32;17.90;51.40
58993;DHT22;44782;0.000;0.000;2024-01-30T03:32:48;17.90;51.40
58993;DHT22;44782;0.000;0.000;2024-01-30T03:35:03;17.90;51.50
58993;DHT22;44782;0.000;0.000;2024-01-30T03:37:19;17.90;51.40
58993;DHT22;44782;0.000;0.000;2024-01-30T03:39:35;17.80;51.40
58993;DHT22;44782;0.000;0.000;2024-01-30T03:41:52;17.90;51.50
58993;DHT22;44782;0.000;0.000;2024-01-30T03:44:07;17.90;51.40
58993;DHT22;44782;0.000;0.000;2024-01-30T03:46:23;17.80;51.40
58993;DHT22;44782;0.000;0.000;2024-01-30T03:48:38;17.80;51.40
58993;DHT22;44782;0.000;0.000;2024-01-30T03:50:54;17.80;51.40
58993;DHT22;44782;0.000;0.000;2024-01-30T03:53:10;17.80;51.40
58993;DHT22;44782;0.000;0.000;2024-01-30T03:55:26;17.80;51.40
58993;DHT22;44782;0.000;0.000;2024-01-30T03:57:41;17.80;51.60
58993;DHT22;44782;0.000;0.000;2024-01-30T03:59:57;17.80;51.50
58993;DHT22;44782;0.000;0.000;2024-01-30T04:02:12;17.80;51.40
58993;DHT22;44782;0.000;0.000;2024-01-30T04:04:28;17.70;51.30
58993;DHT22;44782;0.000;0.000;2024-01-30T04:06:44;17.70;51.30
58993;DHT22;44782;0.000;0.000;2024-01-30T04:09:00;17.80;51.40
58993;DHT22;44782;0.000;0.000;2024-01-30T04:11:18;17.80;51.50
58993;DHT22;44782;0.000;0.000;2024-01-30T04:13:35;17.80;51.70
58993;DHT22;44782;0.000;0.000;2024-01-30T04:15:51;17.80;51.70
58993;DHT22;44782;0.000;0.000;2024-01-30T04:18:07;17.90;51.80
58993;DHT22;44782;0.000;0.000;2024-01-30T04:20:23;18.00;51.80
58993;DHT22;44782;0.000;0.000;2024-01-30T04:22:38;18.10;51.70
58993;DHT22;44782;0.000;0.000;2024-01-30T04:24:54;18.20;51.70
58993;DHT22;44782;0.000;0.000;2024-01-30T04:27:10;18.40;51.70
58993;DHT22;44782;0.000;0.000;2024-01-30T04:29:25;18.40;51.50
58993;DHT22;44782;0.000;0.000;2024-01-30T04:31:41;18.50;51.40
58993;DHT22;44782;0.000;0.000;2024-01-30T04:33:56;18.70;51.40
58993;DHT22;44782;0.000;0.000;2024-01-30T04:36:12;18.80;51.20
58993;DHT22;44782;0.000;0.000;2024-01-30T04:38:28;18.90;51.10
58993;DHT22;44782;0.000;0.000;2024-01-30T04:40:43;19.00;51.00
58993;DHT22;44782;0.000;0.000;2024-01-30T04:42:59;19.10;50.90
58993;DHT22;44782;0.000;0.000;2024-01-30T04:45:15;19.20;50.70
58993;DHT22;44782;0.000;0.000;2024-01-30T04:47:30;19.40;50.70
58993;DHT22;44782;0.000;0.000;2024-01-30T04:49:46;19.50;50.60
58993;DHT22;44782;0.000;0.000;2024-01-30T04:52:02;19.60;50.50
58993;DHT22;44782;0.000;0.000;2024-01-30T04:54:17;19.70;50.30
58993;DHT22;44782;0.000;0.000;2024-01-30T04:56:33;19.80;50.20
58993;DHT22;44782;0.000;0.000;2024-01-30T04:58:49;19.90;50.10
58993;DHT22;44782;0.000;0.000;2024-01-30T05:01:05;20.00;50.10
58993;DHT22;44782;0.000;0.000;2024-01-30T05:03:21;20.10;50.00
58993;DHT22;44782;0.000;0.000;2024-01-30T05:05:38;20.20;49.80
58993;DHT22;44782;0.000;0.000;2024-01-30T05:07:54;20.30;49.70
58993;DHT22;44782;0.000;0.000;2024-01-30T05:10:10;20.40;49.60
58993;DHT22;44782;0.000;0.000;2024-01-30T05:12:26;20.50;49.40
58993;DHT22;44782;0.000;0.000;2024-01-30T05:14:42;20.60;49.30
58993;DHT22;44782;0.000;0.000;2024-01-30T05:16:57;20.60;49.20
58993;DHT22;44782;0.000;0.000;2024-01-30T05:19:13;20.70;49.10
58993;DHT22;44782;0.000;0.000;2024-01-30T05:21:32;20.70;49.00
58993;DHT22;44782;0.000;0.000;2024-01-30T05:23:48;20.70;49.00
58993;DHT22;44782;0.000;0.000;2024-01-30T05:26:03;20.70;48.90
58993;DHT22;44782;0.000;0.000;2024-01-30T05:28:19;20.70;48.90
58993;DHT22;44782;0.000;0.000;2024-01-30T05:30:35;20.60;48.90
58993;DHT22;44782;0.000;0.000;2024-01-30T05:32:50;20.60;49.00
58993;DHT22;44782;0.000;0.000;2024-01-30T05:35:06;20.60;49.10
58993;DHT22;44782;0.000;0.000;2024-01-30T05:37:23;20.60;49.10
58993;DHT22;44782;0.000;0.000;2024-01-30T05:39:38;20.60;49.20
58993;DHT22;44782;0.000;0.000;2024-01-30T05:41:54;20.50;49.20
58993;DHT22;44782;0.000;0.000;2024-01-30T05:44:10;20.50;49.20
58993;DHT22;44782;0.000;0.000;2024-01-30T05:46:25;20.40;49.20
58993;DHT22;44782;0.000;0.000;2024-01-30T05:48:41;20.40;49.30
58993;DHT22;44782;0.000;0.000;2024-01-30T05:50:57;20.40;49.30
58993;DHT22;44782;0.000;0.000;2024-01-30T05:53:13;20.30;49.30
58993;DHT22;44782;0.000;0.000;2024-01-30T05:55:28;20.30;49.40
58993;DHT22;44782;0.000;0.000;2024-01-30T05:57:44;20.30;49.40
58993;DHT22;44782;0.000;0.000;2024-01-30T05:59:59;20.20;49.40
58993;DHT22;44782;0.000;0.000;2024-01-30T06:02:15;20.20;49.40
58993;DHT22;44782;0.000;0.000;2024-01-30T06:04:31;20.20;49.60
58993;DHT22;44782;0.000;0.000;2024-01-30T06:06:46;20.20;50.00
58993;DHT22;44782;0.000;0.000;2024-01-30T06:09:02;20.10;50.20
58993;DHT22;44782;0.000;0.000;2024-01-30T06:11:18;20.10;50.60
58993;DHT22;44782;0.000;0.000;2024-01-30T06:13:34;20.10;50.80
58993;DHT22;44782;0.000;0.000;2024-01-30T06:15:49;20.00;50.90
58993;DHT22;44782;0.000;0.000;2024-01-30T06:18:05;19.90;51.10
58993;DHT22;44782;0.000;0.000;2024-01-30T06:20:21;19.90;51.00
58993;DHT22;44782;0.000;0.000;2024-01-30T06:22:36;19.90;51.00
58993;DHT22;44782;0.000;0.000;2024-01-30T06:24:52;19.80;50.90
58993;DHT22;44782;0.000;0.000;2024-01-30T06:27:08;19.80;51.20
58993;DHT22;44782;0.000;0.000;2024-01-30T06:29:23;19.80;51.10
58993;DHT22;44782;0.000;0.000;2024-01-30T06:31:42;19.80;51.10
58993;DHT22;44782;0.000;0.000;2024-01-30T06:33:58;19.70;51.20
58993;DHT22;44782;0.000;0.000;2024-01-30T06:36:13;19.70;51.10
58993;DHT22;44782;0.000;0.000;2024-01-30T06:38:29;19.70;51.00
58993;DHT22;44782;0.000;0.000;2024-01-30T06:40:45;19.70;51.10
58993;DHT22;44782;0.000;0.000;2024-01-30T06:43:00;19.70;51.10
58993;DHT22;44782;0.000;0.000;2024-01-30T06:45:16;19.60;51.00
58993;DHT22;44782;0.000;0.000;2024-01-30T06:47:32;19.60;51.20
58993;DHT22;44782;0.000;0.000;2024-01-30T06:49:47;19.60;50.90
58993;DHT22;44782;0.000;0.000;2024-01-30T06:52:06;19.50;50.80
58993;DHT22;44782;0.000;0.000;2024-01-30T06:54:21;19.50;50.70
58993;DHT22;44782;0.000;0.000;2024-01-30T06:56:37;19.50;50.70
58993;DHT22;44782;0.000;0.000;2024-01-30T06:58:52;19.50;50.70
58993;DHT22;44782;0.000;0.000;2024-01-30T07:01:08;19.50;50.70
58993;DHT22;44782;0.000;0.000;2024-01-30T07:03:25;19.50;50.80
58993;DHT22;44782;0.000;0.000;2024-01-30T07:05:40;19.50;50.80
58993;DHT22;44782;0.000;0.000;2024-01-30T07:07:56;19.40;51.00
58993;DHT22;44782;0.000;0.000;2024-01-30T07:10:12;19.40;51.10
58993;DHT22;44782;0.000;0.000;2024-01-30T07:12:27;19.40;51.00
58993;DHT22;44782;0.000;0.000;2024-01-30T07:14:43;19.40;51.00
58993;DHT22;44782;0.000;0.000;2024-01-30T07:16:59;19.30;51.00
58993;DHT22;44782;0.000;0.000;2024-01-30T07:19:17;19.30;51.10
58993;DHT22;44782;0.000;0.000;2024-01-30T07:21:33;19.30;51.20
58993;DHT22;44782;0.000;0.000;2024-01-30T07:23:48;19.30;51.10
58993;DHT22;44782;0.000;0.000;2024-01-30T07:26:05;19.30;51.20
58993;DHT22;44782;0.000;0.000;2024-01-30T07:28:22;19.20;51.00
58993;DHT22;44782;0.000;0.000;2024-01-30T07:30:37;19.20;51.10
58993;DHT22;44782;0.000;0.000;2024-01-30T07:32:53;19.20;51.20
58993;DHT22;44782;0.000;0.000;2024-01-30T07:35:09;19.20;51.20
58993;DHT22;44782;0.000;0.000;2024-01-30T07:37:24;19.10;51.20
58993;DHT22;44782;0.000;0.000;2024-01-30T07:39:40;19.10;51.20
58993;DHT22;44782;0.000;0.000;2024-01-30T07:41:56;19.10;51.20
58993;DHT22;44782;0.000;0.000;2024-01-30T07:44:11;19.10;51.20
58993;DHT22;44782;0.000;0.000;2024-01-30T07:46:27;19.10;51.30
58993;DHT22;44782;0.000;0.000;2024-01-30T07:48:43;19.10;51.20
58993;DHT22;44782;0.000;0.000;2024-01-30T07:50:58;19.10;51.20
58993;DHT22;44782;0.000;0.000;2024-01-30T07:53:14;19.00;51.20
58993;DHT22;44782;0.000;0.000;2024-01-30T07:55:30;19.00;51.20
58993;DHT22;44782;0.000;0.000;2024-01-30T07:57:47;19.00;51.20
58993;DHT22;44782;0.000;0.000;2024-01-30T08:00:03;19.00;51.20
58993;DHT22;44782;0.000;0.000;2024-01-30T08:02:19;18.90;51.10
58993;DHT22;44782;0.000;0.000;2024-01-30T08:04:34;19.00;51.20
58993;DHT22;44782;0.000;0.000;2024-01-30T08:06:50;18.90;51.20
58993;DHT22;44782;0.000;0.000;2024-01-30T08:09:05;18.90;51.20
58993;DHT22;44782;0.000;0.000;2024-01-30T08:11:22;18.90;51.20
58993;DHT22;44782;0.000;0.000;2024-01-30T08:13:41;18.90;51.10
58993;DHT22;44782;0.000;0.000;2024-01-30T08:15:56;18.80;51.10
58993;DHT22;44782;0.000;0.000;2024-01-30T08:18:12;18.80;51.10
58993;DHT22;44782;0.000;0.000;2024-01-30T08:20:28;18.80;51.00
58993;DHT22;44782;0.000;0.000;2024-01-30T08:22:43;18.80;51.10
58993;DHT22;44782;0.000;0.000;2024-01-30T08:24:59;18.80;51.10
58993;DHT22;44782;0.000;0.000;2024-01-30T08:27:14;18.80;51.10
58993;DHT22;44782;0.000;0.000;2024-01-30T08:29:30;18.70;51.00
58993;DHT22;44782;0.000;0.000;2024-01-30T08:31:46;18.70;51.00
58993;DHT22;44782;0.000;0.000;2024-01-30T08:34:01;18.70;51.10
58993;DHT22;44782;0.000;0.000;2024-01-30T08:36:17;18.70;51.10
58993;DHT22;44782;0.000;0.000;2024-01-30T08:38:33;18.70;51.20
58993;DHT22;44782;0.000;0.000;2024-01-30T08:40:49;18.70;51.20
58993;DHT22;44782;0.000;0.000;2024-01-30T08:43:05;18.70;51.20
58993;DHT22;44782;0.000;0.000;2024-01-30T08:45:20;18.60;51.20
58993;DHT22;44782;0.000;0.000;2024-01-30T08:47:36;18.60;51.10
58993;DHT22;44782;0.000;0.000;2024-01-30T08:49:52;18.60;51.10
58993;DHT22;44782;0.000;0.000;2024-01-30T08:52:07;18.60;51.30
58993;DHT22;44782;0.000;0.000;2024-01-30T08:54:23;18.60;51.20
58993;DHT22;44782;0.000;0.000;2024-01-30T08:56:39;18.50;51.20
58993;DHT22;44782;0.000;0.000;2024-01-30T08:58:55;18.50;51.20
58993;DHT22;44782;0.000;0.000;2024-01-30T09:01:10;18.60;51.20
58993;DHT22;44782;0.000;0.000;2024-01-30T09:03:26;18.50;51.20
58993;DHT22;44782;0.000;0.000;2024-01-30T09:05:43;18.50;51.20
58993;DHT22;44782;0.000;0.000;2024-01-30T09:07:58;18.50;51.20
58993;DHT22;44782;0.000;0.000;2024-01-30T09:10:14;18.50;51.20
58993;DHT22;44782;0.000;0.000;2024-01-30T09:12:30;18.40;51.20
58993;DHT22;44782;0.000;0.000;2024-01-30T09:14:45;18.50;51.20
58993;DHT22;44782;0.000;0.000;2024-01-30T09:17:01;18.40;51.20
58993;DHT22;44782;0.000;0.000;2024-01-30T09:19:18;18.40;51.20
58993;DHT22;44782;0.000;0.000;2024-01-30T09:21:34;18.40;51.20
58993;DHT22;44782;0.000;0.000;2024-01-30T09:23:49;18.40;51.30
58993;DHT22;44782;0.000;0.000;2024-01-30T09:26:05;18.40;51.30
58993;DHT22;44782;0.000;0.000;2024-01-30T09:28:21;18.30;51.40
58993;DHT22;44782;0.000;0.000;2024-01-30T09:30:36;18.40;51.40
58993;DHT22;44782;0.000;0.000;2024-01-30T09:32:52;18.40;51.50
58993;DHT22;44782;0.000;0.000;2024-01-30T09:35:08;18.30;51.40
58993;DHT22;44782;0.000;0.000;2024-01-30T09:37:23;18.30;51.50
58993;DHT22;44782;0.000;0.000;2024-01-30T09:39:39;18.30;51.50
58993;DHT22;44782;0.000;0.000;2024-01-30T09:42:06;18.30;51.40
58993;DHT22;44782;0.000;0.000;2024-01-30T09:44:26;18.30;51.40
58993;DHT22;44782;0.000;0.000;2024-01-30T09:46:46;18.20;51.50
58993;DHT22;44782;0.000;0.000;2024-01-30T09:49:02;18.30;51.40
58993;DHT22;44782;0.000;0.000;2024-01-30T09:51:19;18.20;51.50
58993;DHT22;44782;0.000;0.000;2024-01-30T09:53:36;18.20;51.40
58993;DHT22;44782;0.000;0.000;2024-01-30T09:55:52;18.20;51.30
58993;DHT22;44782;0.000;0.000;2024-01-30T09:58:08;18.20;51.40
58993;DHT22;44782;0.000;0.000;2024-01-30T10:00:23;18.20;51.40
58993;DHT22;44782;0.000;0.000;2024-01-30T10:02:42;18.20;51.40
58993;DHT22;44782;0.000;0.000;2024-01-30T10:04:58;18.20;51.50
58993;DHT22;44782;0.000;0.000;2024-01-30T10:07:14;18.20;51.40
58993;DHT22;44782;0.000;0.000;2024-01-30T10:09:32;18.20;51.40
58993;DHT22;44782;0.000;0.000;2024-01-30T10:11:49;18.10;51.30
58993;DHT22;44782;0.000;0.000;2024-01-30T10:14:06;18.10;51.40
58993;DHT22;44782;0.000;0.000;2024-01-30T10:16:22;18.10;51.40
58993;DHT22;44782;0.000;0.000;2024-01-30T10:18:41;18.10;51.50
58993;DHT22;44782;0.000;0.000;2024-01-30T10:20:57;18.10;51.50
58993;DHT22;44782;0.000;0.000;2024-01-30T10:23:12;18.10;51.80
58993;DHT22;44782;0.000;0.000;2024-01-30T10:25:28;18.10;51.50
58993;DHT22;44782;0.000;0.000;2024-01-30T10:27:44;18.10;51.50
58993;DHT22;44782;0.000;0.000;2024-01-30T10:29:59;18.00;51.40
58993;DHT22;44782;0.000;0.000;2024-01-30T10:32:15;18.00;51.50
58993;DHT22;44782;0.000;0.000;2024-01-30T10:34:32;18.00;51.50
58993;DHT22;44782;0.000;0.000;2024-01-30T10:36:50;18.00;51.60
58993;DHT22;44782;0.000;0.000;2024-01-30T10:39:09;18.00;51.50
58993;DHT22;44782;0.000;0.000;2024-01-30T10:41:31;18.00;51.70
58993;DHT22;44782;0.000;0.000;2024-01-30T10:43:59;18.00;51.60
58993;DHT22;44782;0.000;0.000;2024-01-30T10:46:20;18.00;51.60
58993;DHT22;44782;0.000;0.000;2024-01-30T10:48:43;18.00;51.70
58993;DHT22;44782;0.000;0.000;2024-01-30T10:51:00;18.00;51.70
58993;DHT22;44782;0.000;0.000;2024-01-30T10:53:18;17.90;51.50
58993;DHT22;44782;0.000;0.000;2024-01-30T10:55:34;17.90;51.60
58993;DHT22;44782;0.000;0.000;2024-01-30T10:57:52;17.90;51.60
58993;DHT22;44782;0.000;0.000;2024-01-30T11:00:13;17.90;51.60
58993;DHT22;44782;0.000;0.000;2024-01-30T11:02:31;17.90;51.70
58993;DHT22;44782;0.000;0.000;2024-01-30T11:04:47;17.90;51.70
58993;DHT22;44782;0.000;0.000;2024-01-30T11:07:17;17.90;51.70
58993;DHT22;44782;0.000;0.000;2024-01-30T11:09:36;17.90;51.60
58993;DHT22;44782;0.000;0.000;2024-01-30T11:11:58;17.90;51.70
58993;DHT22;44782;0.000;0.000;2024-01-30T11:14:26;17.90;51.50
58993;DHT22;44782;0.000;0.000;2024-01-30T11:16:42;17.90;51.60
58993;DHT22;44782;0.000;0.000;2024-01-30T11:19:00;17.80;51.70
58993;DHT22;44782;0.000;0.000;2024-01-30T11:21:17;17.90;51.80
58993;DHT22;44782;0.000;0.000;2024-01-30T11:23:35;17.90;51.80
58993;DHT22;44782;0.000;0.000;2024-01-30T11:25:53;17.80;51.70
58993;DHT22;44782;0.000;0.000;2024-01-30T11:28:14;17.80;51.70
58993;DHT22;44782;0.000;0.000;2024-01-30T11:30:36;17.90;51.70
58993;DHT22;44782;0.000;0.000;2024-01-30T11:35:19;17.90;51.80
58993;DHT22;44782;0.000;0.000;2024-01-30T11:37:37;17.80;51.70
58993;DHT22;44782;0.000;0.000;2024-01-30T11:39:55;17.80;51.80
58993;DHT22;44782;0.000;0.000;2024-01-30T11:42:11;17.80;51.70
58993;DHT22;44782;0.000;0.000;2024-01-30T11:44:28;17.80;51.70
58993;DHT22;44782;0.000;0.000;2024-01-30T11:46:43;17.80;51.70
58993;DHT22;44782;0.000;0.000;2024-01-30T11:48:59;17.80;51.80
58993;DHT22;44782;0.000;0.000;2024-01-30T11:51:15;17.80;51.70
58993;DHT22;44782;0.000;0.000;2024-01-30T11:53:31;17.80;51.80
58993;DHT22;44782;0.000;0.000;2024-01-30T11:55:50;17.80;51.80
58993;DHT22;44782;0.000;0.000;2024-01-30T11:58:06;17.80;51.70
58993;DHT22;44782;0.000;0.000;2024-01-30T12:00:21;17.80;51.80
58993;DHT22;44782;0.000;0.000;2024-01-30T12:02:37;17.80;51.80
58993;DHT22;44782;0.000;0.000;2024-01-30T12:04:53;17.70;51.80
58993;DHT22;44782;0.000;0.000;2024-01-30T12:07:09;17.70;51.70
58993;DHT22;44782;0.000;0.000;2024-01-30T12:09:24;17.70;51.60
58993;DHT22;44782;0.000;0.000;2024-01-30T12:11:47;17.70;51.70
58993;DHT22;44782;0.000;0.000;2024-01-30T12:14:03;17.70;51.80
58993;DHT22;44782;0.000;0.000;2024-01-30T12:16:19;17.70;51.70
58993;DHT22;44782;0.000;0.000;2024-01-30T12:18:34;17.70;51.80
58993;DHT22;44782;0.000;0.000;2024-01-30T12:20:59;17.70;51.70
58993;DHT22;44782;0.000;0.000;2024-01-30T12:23:15;17.70;51.70
58993;DHT22;44782;0.000;0.000;2024-01-30T12:25:31;17.70;51.70
58993;DHT22;44782;0.000;0.000;2024-01-30T12:27:49;17.70;51.70
58993;DHT22;44782;0.000;0.000;2024-01-30T12:30:16;17.70;51.70
58993;DHT22;44782;0.000;0.000;2024-01-30T12:32:35;17.70;51.70
58993;DHT22;44782;0.000;0.000;2024-01-30T12:34:55;17.70;51.60
58993;DHT22;44782;0.000;0.000;2024-01-30T12:37:12;17.70;51.60
58993;DHT22;44782;0.000;0.000;2024-01-30T12:39:29;17.70;51.70
58993;DHT22;44782;0.000;0.000;2024-01-30T12:41:45;17.70;51.60
58993;DHT22;44782;0.000;0.000;2024-01-30T12:44:01;17.70;51.50
58993;DHT22;44782;0.000;0.000;2024-01-30T12:46:17;17.60;51.60
58993;DHT22;44782;0.000;0.000;2024-01-30T12:48:33;17.70;51.60
58993;DHT22;44782;0.000;0.000;2024-01-30T12:50:48;17.70;51.60
58993;DHT22;44782;0.000;0.000;2024-01-30T12:53:05;17.60;51.60
58993;DHT22;44782;0.000;0.000;2024-01-30T12:55:21;17.60;51.60
58993;DHT22;44782;0.000;0.000;2024-01-30T12:57:37;17.60;51.60
58993;DHT22;44782;0.000;0.000;2024-01-30T12:59:54;17.60;51.60
58993;DHT22;44782;0.000;0.000;2024-01-30T13:02:11;17.60;51.60
58993;DHT22;44782;0.000;0.000;2024-01-30T13:04:27;17.60;51.70
58993;DHT22;44782;0.000;0.000;2024-01-30T13:06:44;17.60;51.70
58993;DHT22;44782;0.000;0.000;2024-01-30T13:08:59;17.60;51.70
58993;DHT22;44782;0.000;0.000;2024-01-30T13:11:15;17.60;51.80
58993;DHT22;44782;0.000;0.000;2024-01-30T13:13:30;17.60;51.80
58993;DHT22;44782;0.000;0.000;2024-01-30T13:15:47;17.60;51.70
58993;DHT22;44782;0.000;0.000;2024-01-30T13:18:03;17.60;51.70
58993;DHT22;44782;0.000;0.000;2024-01-30T13:20:19;17.60;51.70
58993;DHT22;44782;0.000;0.000;2024-01-30T13:22:36;17.60;51.80
58993;DHT22;44782;0.000;0.000;2024-01-30T13:24:53;17.60;51.70
58993;DHT22;44782;0.000;0.000;2024-01-30T13:27:09;17.60;51.70
58993;DHT22;44782;0.000;0.000;2024-01-30T13:29:24;17.60;51.80
58993;DHT22;44782;0.000;0.000;2024-01-30T13:31:40;17.50;51.70
58993;DHT22;44782;0.000;0.000;2024-01-30T13:33:56;17.50;51.80
58993;DHT22;44782;0.000;0.000;2024-01-30T13:36:12;17.50;51.70
58993;DHT22;44782;0.000;0.000;2024-01-30T13:38:27;17.50;51.70
58993;DHT22;44782;0.000;0.000;2024-01-30T13:40:43;17.50;51.80
58993;DHT22;44782;0.000;0.000;2024-01-30T13:42:59;17.50;51.70
58993;DHT22;44782;0.000;0.000;2024-01-30T13:45:15;17.50;51.60
58993;DHT22;44782;0.000;0.000;2024-01-30T13:47:30;17.50;51.50
58993;DHT22;44782;0.000;0.000;2024-01-30T13:49:46;17.60;51.60
58993;DHT22;44782;0.000;0.000;2024-01-30T13:52:02;17.60;51.60
58993;DHT22;44782;0.000;0.000;2024-01-30T13:54:19;17.70;51.80
58993;DHT22;44782;0.000;0.000;2024-01-30T13:56:34;17.70;51.70
58993;DHT22;44782;0.000;0.000;2024-01-30T13:58:50;17.80;51.70
58993;DHT22;44782;0.000;0.000;2024-01-30T14:01:06;17.90;51.80
58993;DHT22;44782;0.000;0.000;2024-01-30T14:03:21;17.90;51.70
58993;DHT22;44782;0.000;0.000;2024-01-30T14:05:37;18.00;51.70
58993;DHT22;44782;0.000;0.000;2024-01-30T14:07:53;18.10;51.60
58993;DHT22;44782;0.000;0.000;2024-01-30T14:10:10;18.20;51.50
58993;DHT22;44782;0.000;0.000;2024-01-30T14:12:28;18.30;51.40
58993;DHT22;44782;0.000;0.000;2024-01-30T14:14:45;18.30;51.20
58993;DHT22;44782;0.000;0.000;2024-01-30T14:17:01;18.40;51.10
58993;DHT22;44782;0.000;0.000;2024-01-30T14:19:17;18.50;51.10
58993;DHT22;44782;0.000;0.000;2024-01-30T14:21:32;18.50;51.00
58993;DHT22;44782;0.000;0.000;2024-01-30T14:23:48;18.50;50.90
58993;DHT22;44782;0.000;0.000;2024-01-30T14:26:04;18.60;50.90
58993;DHT22;44782;0.000;0.000;2024-01-30T14:28:19;18.50;50.80
58993;DHT22;44782;0.000;0.000;2024-01-30T14:30:35;18.60;50.90
58993;DHT22;44782;0.000;0.000;2024-01-30T14:32:51;18.60;50.90
58993;DHT22;44782;0.000;0.000;2024-01-30T14:35:07;18.60;50.80
58993;DHT22;44782;0.000;0.000;2024-01-30T14:37:24;18.50;50.80